The Plains, Virginia
Current Conditions -  °F | °C
As of 8:45 PM on Tuesday 21 Oct 2014 (Local Time) from KHEF Reporting Station
Light Rain Light Rain  
Wind Chill: 54°   Ceiling: 6000
Heat Index: 54°   Visibility: 10mi
Dew Point: 54°   Wind: 7mph
Humidity: 100%   Direction: 350°N
Pressure: 29.91"   Gusts: NA
Location:  38.86°N, 77.77°W
Report Text: KHEF 220045Z 35006KT 10SM -RA OVC060 12/12 A2991
Loading
Personal Weather Stations






























Interactive Weather Map
Tropical Storm Tracking
New forecast layout! Learn more

10-Day Weather Forecast

Advertisements
Track Severe Weather on mobile